Latest Weather Observations for Wynyard

IDT60801

Issued at 10:03 pm EST Saturday 1 October 2016 (issued every 30 minutes, with the page automatically refreshed every 10 minutes)

About weather observations | Map of weather stations | Latest weather observations for TAS | Other Formats
Station Details ID: 091107 Name: WYNYARD AIRPORT Lat: -41.00 Lon: 145.73 Height: 12.0 m
Data from the previous 72 hours. | See also: Recent months at Wynyard
Date/Time
EST
Temp
°C
App
Temp
°C
Dew
Point
°C
Rel
Hum
%
Delta-T
°C
Wind Press
QNH
hPa
Press
MSL
hPa
Rain since
9am
mm
Dir  Spd
km/h
Gust
km/h
Spd
kts
Gust
kts
01/10:00pm 10.5 6.1 8.8 89 0.8 WNW 22 30 12 16 1003.1 1003.1 0.2
01/09:46pm 11.0 6.1 8.6 85 1.2 W 24 35 13 19 1002.9 1002.9 0.2
01/09:30pm 11.4 7.2 8.3 81 1.5 W 20 28 11 15 1002.7 1002.7 0.2
01/09:00pm 11.5 7.8 8.0 79 1.7 W 17 26 9 14 1002.5 1002.5 0.2
01/08:30pm 11.1 6.0 7.8 80 1.6 W 24 41 13 22 1001.9 1001.9 0.2
01/08:00pm 11.6 7.4 8.3 80 1.6 W 20 28 11 15 1001.7 1001.7 0.2
01/07:30pm 11.4 5.2 7.7 78 1.8 W 30 41 16 22 1001.1 1001.1 0.2
01/07:20pm 11.5 5.7 7.8 78 1.8 W 28 46 15 25 1000.9 1000.9 0.2
01/07:00pm 11.5 5.3 7.8 78 1.8 W 30 39 16 21 1000.7 1000.7 0.2
01/06:30pm 11.7 5.9 7.8 77 1.9 W 28 37 15 20 1000.0 1000.0 0.2
01/06:00pm 12.0 6.6 7.9 76 2.0 W 26 37 14 20 999.6 999.6 0.2
01/05:30pm 11.8 6.2 8.6 81 1.6 W 28 39 15 21 999.2 999.2 0.2
01/05:00pm 12.4 6.1 8.9 79 1.8 WNW 32 43 17 23 998.8 998.8 0.2
01/04:30pm 12.5 6.7 9.5 82 1.5 W 30 43 16 23 998.2 998.2 0.2
01/04:00pm 13.2 6.8 9.5 78 1.9 WNW 33 46 18 25 997.6 997.6 0.2
01/03:30pm 13.8 7.4 9.5 75 2.2 W 33 44 18 24 996.9 996.9 0.2
01/03:00pm 14.6 7.1 9.4 71 2.7 WNW 39 52 21 28 996.7 996.7 0.0
01/02:30pm 14.5 8.4 9.7 73 2.5 WNW 32 41 17 22 996.4 996.4 0.0
01/02:00pm 14.5 9.0 10.5 77 2.1 W 30 43 16 23 996.1 996.1 0.0
01/01:55pm 14.0 8.1 10.4 79 1.9 W 32 50 17 27 996.0 996.0 0.0
01/01:30pm 14.0 7.8 10.2 78 2.0 W 33 48 18 26 995.9 995.9 0.0
01/01:09pm 13.3 7.2 9.7 79 1.8 W 32 43 17 23 995.8 995.8 0.0
01/01:00pm 13.8 7.5 9.8 77 2.1 WNW 33 50 18 27 995.7 995.7 0.0
01/12:53pm 13.4 7.3 9.6 78 1.9 WNW 32 50 17 27 995.6 995.6 0.0
01/12:52pm 13.8 7.8 10.2 79 1.9 WNW 32 43 17 23 995.7 995.7 0.0
01/12:33pm 13.1 8.8 10.8 86 1.2 W 24 33 13 18 995.9 995.9 0.0
01/12:30pm 13.1 8.9 11.0 87 1.1 WNW 24 35 13 19 995.9 995.9 0.0
01/12:17pm 12.7 7.7 10.8 88 1.0 WNW 28 37 15 20 995.9 995.9 0.0
01/12:08pm 12.6 7.0 10.3 86 1.2 WNW 30 39 16 21 995.9 995.9 0.0
01/12:00pm 12.9 6.9 10.1 83 1.5 WNW 32 41 17 22 995.7 995.7 0.0
01/11:46am 14.0 8.1 10.6 80 1.8 WNW 32 43 17 23 995.5 995.5 0.0
01/11:32am 13.3 7.1 9.9 80 1.7 WNW 33 52 18 28 995.4 995.4 0.0
01/11:30am 13.4 6.8 10.0 80 1.8 WNW 35 52 19 28 995.4 995.4 0.0
01/11:00am 13.1 6.9 9.9 81 1.7 W 33 54 18 29 995.2 995.2 0.0
01/10:53am 12.8 6.6 9.4 80 1.7 WNW 32 54 17 29 995.1 995.1 0.0
01/10:30am 13.2 8.9 10.9 86 1.2 WNW 24 33 13 18 995.1 995.1 0.0
01/10:00am 12.2 8.1 10.1 87 1.1 NW 22 30 12 16 995.1 995.1 0.0
01/09:30am 12.2 7.8 10.3 88 1.0 WNW 24 35 13 19 995.0 995.0 0.0
01/09:00am 11.9 7.4 10.0 88 1.0 WNW 24 35 13 19 994.7 994.7 16.4
01/08:30am 11.9 7.5 10.3 90 0.8 WNW 24 35 13 19 994.4 994.4 16.4
01/08:00am 11.2 7.6 10.0 92 0.6 WNW 19 26 10 14 994.1 994.1 16.4
01/07:35am 10.9 7.1 9.7 92 0.6 NW 20 32 11 17 993.9 993.9 16.4
01/07:30am 10.8 7.1 9.6 92 0.6 NW 19 30 10 16 993.9 993.9 16.4
01/07:17am 10.8 7.2 9.7 93 0.6 NW 19 26 10 14 993.8 993.8 16.4
01/07:00am 10.5 6.8 9.4 93 0.6 NW 19 28 10 15 993.7 993.7 16.2
01/06:30am 9.7 7.7 8.8 94 0.4 NW 9 11 5 6 993.6 993.6 15.8
01/06:00am 9.6 8.0 8.7 94 0.4 NW 7 11 4 6 993.4 993.4 15.2
01/05:30am 9.6 7.6 8.7 94 0.4 NW 9 11 5 6 993.1 993.1 14.4
01/05:00am 9.7 7.7 8.6 93 0.5 WNW 9 11 5 6 992.9 992.9 14.4
01/04:30am 9.8 7.8 8.6 92 0.6 WNW 9 11 5 6 992.5 992.5 14.0
01/04:00am 10.1 7.4 8.9 92 0.6 NW 13 19 7 10 992.3 992.3 13.8
01/03:30am 10.4 7.0 9.2 92 0.6 NW 17 22 9 12 992.0 992.0 13.6
01/03:18am 10.6 6.7 9.5 93 0.6 NW 20 28 11 15 991.9 991.9 13.6
01/03:00am 10.6 5.9 9.4 92 0.6 NW 24 33 13 18 991.9 991.9 13.0
01/02:52am 10.5 5.4 9.3 92 0.6 NW 26 33 14 18 991.9 991.9 12.8
01/02:30am 10.4 6.6 9.0 91 0.7 N 19 30 10 16 992.0 992.0 12.0
01/02:23am 10.4 6.3 8.8 90 0.8 N 20 30 11 16 992.0 992.0 11.6
01/02:01am 10.3 5.3 8.2 87 1.0 N 24 39 13 21 992.3 992.3 11.0
01/02:00am 10.3 5.3 8.1 86 1.1 N 24 39 13 21 992.3 992.3 11.0
01/01:30am 10.3 5.9 7.5 83 1.3 N 20 33 11 18 992.5 992.5 10.2
01/01:00am 10.3 4.6 6.8 79 1.7 NNW 26 39 14 21 992.9 992.9 10.0
01/12:30am 9.9 4.4 7.5 85 1.1 NNW 26 39 14 21 993.0 993.0 10.0
01/12:00am 9.9 5.3 8.3 90 0.8 N 22 35 12 19 993.2 993.2 9.4
 
Date/Time
EST
Temp
°C
App
Temp
°C
Dew
Point
°C
Rel
Hum
%
Delta-T
°C
Wind Press
QNH
hPa
Press
MSL
hPa
Rain since
9am
mm
Dir  Spd
km/h
Gust
km/h
Spd
kts
Gust
kts
30/11:30pm 9.5 6.2 8.1 91 0.7 N 15 32 8 17 993.4 993.4 7.8
30/11:25pm 9.3 7.2 8.2 93 0.5 N 9 17 5 9 993.5 993.5 7.8
30/11:13pm 9.0 7.2 7.9 93 0.5 NE 7 11 4 6 993.7 993.7 7.4
30/11:00pm 8.8 7.5 7.7 93 0.5 SE 4 7 2 4 993.7 993.7 6.6
30/10:30pm 8.7 7.0 7.5 92 0.6 E 6 7 3 4 993.9 993.9 5.8
30/10:00pm 8.8 7.4 7.4 91 0.7 NW 4 7 2 4 994.1 994.1 5.2
30/09:30pm 8.7 8.1 7.2 90 0.7 CALM 0 0 0 0 994.3 994.3 4.2
30/09:00pm 8.7 6.7 7.0 89 0.8 N 7 9 4 5 994.2 994.2 4.0
30/08:30pm 8.9 8.1 6.7 86 1.0 CALM 0 0 0 0 994.1 994.1 3.6
30/08:00pm 9.3 6.8 6.7 84 1.2 NW 9 11 5 6 993.9 993.9 3.6
30/07:30pm 9.2 5.5 6.3 82 1.3 W 15 24 8 13 993.5 993.5 3.6
30/07:00pm 9.5 3.2 5.5 76 1.8 NNW 28 39 15 21 992.9 992.9 3.4
30/06:46pm 9.8 3.9 5.8 76 1.8 NW 26 46 14 25 993.0 993.0 3.2
30/06:42pm 9.8 5.1 6.2 78 1.7 WNW 20 43 11 23 993.0 993.0 3.2
30/06:30pm 10.0 7.0 7.9 87 1.0 NNW 13 19 7 10 992.9 992.9 2.8
30/06:00pm 10.1 7.9 8.0 87 1.0 NW 9 13 5 7 992.6 992.6 2.0
30/05:30pm 10.1 7.1 7.9 86 1.1 WNW 13 17 7 9 992.1 992.1 1.8
30/05:00pm 10.3 5.9 7.5 83 1.4 W 20 26 11 14 991.4 991.4 1.8
30/04:30pm 10.4 6.8 8.5 88 0.9 W 17 22 9 12 991.1 991.1 1.8
30/04:00pm 10.5 7.8 8.8 89 0.8 SW 13 15 7 8 991.2 991.2 1.8
30/03:30pm 11.0 8.7 8.9 87 1.0 WSW 11 17 6 9 991.1 991.1 1.2
30/03:00pm 11.1 8.2 8.3 83 1.4 WNW 13 17 7 9 991.1 991.1 0.8
30/02:30pm 10.9 8.8 8.1 83 1.4 WNW 9 17 5 9 991.1 991.1 0.8
30/02:00pm 11.6 8.8 8.6 82 1.5 WNW 13 20 7 11 991.4 991.4 0.2
30/01:30pm 12.0 9.1 8.3 78 1.8 W 13 17 7 9 991.2 991.2 0.0
30/01:00pm 12.5 10.0 8.4 76 2.1 W 11 15 6 8 991.0 991.0 0.0
30/12:30pm 12.3 9.1 8.6 78 1.8 W 15 22 8 12 991.0 991.0 0.0
30/12:00pm 12.3 8.8 8.6 78 1.9 W 17 22 9 12 990.7 990.7 0.0
30/11:30am 11.8 7.9 8.5 80 1.6 W 19 24 10 13 990.8 990.8 0.0
30/11:00am 11.5 7.6 8.7 83 1.4 WNW 19 22 10 12 990.9 990.9 0.0
30/10:30am 11.0 7.0 8.2 83 1.4 W 19 24 10 13 991.0 991.0 0.0
30/10:00am 10.7 7.1 8.3 85 1.2 W 17 20 9 11 991.2 991.2 0.0
30/09:30am 10.2 7.1 8.8 91 0.7 WNW 15 22 8 12 991.2 991.2 0.0
30/09:00am 9.1 5.5 8.3 95 0.4 WNW 17 20 9 11 991.2 991.2 33.2
30/08:30am 8.3 5.3 7.9 97 0.2 W 13 17 7 9 991.4 991.4 33.2
30/08:00am 7.4 4.6 7.1 98 0.1 WSW 11 13 6 7 991.5 991.5 33.2
30/07:30am 6.7 3.4 6.4 98 0.1 WNW 13 15 7 8 991.6 991.6 33.2
30/07:00am 6.3 2.9 6.0 98 0.1 WNW 13 15 7 8 991.5 991.5 33.2
30/06:30am 5.6 3.2 5.3 98 0.1 WNW 7 9 4 5 991.0 991.0 33.2
30/06:00am 5.9 3.2 5.6 98 0.1 SW 9 15 5 8 990.8 990.8 33.2
30/05:30am 4.9 2.0 4.6 98 0.1 W 9 9 5 5 990.6 990.6 33.2
30/05:00am 5.2 1.9 4.8 97 0.2 WNW 11 13 6 7 990.9 990.9 33.2
30/04:30am 5.3 1.7 4.9 97 0.2 WNW 13 17 7 9 990.8 990.8 33.2
30/04:14am 5.5 1.9 5.2 98 0.1 NW 13 15 7 8 991.2 991.2 33.2
30/04:00am 5.0 1.7 4.7 98 0.1 WNW 11 13 6 7 991.2 991.2 33.2
30/03:53am 5.2 2.3 4.9 98 0.1 WNW 9 13 5 7 991.2 991.2 33.2
30/03:30am 4.2 1.1 3.8 97 0.2 W 9 11 5 6 991.0 991.0 33.2
30/03:25am 4.2 1.1 3.8 97 0.2 WNW 9 11 5 6 991.0 991.0 33.2
30/03:00am 4.8 1.9 4.5 98 0.1 WNW 9 13 5 7 991.2 991.2 33.2
30/02:30am 4.4 1.0 4.0 97 0.2 WNW 11 13 6 7 991.1 991.1 33.2
30/02:00am 5.0 1.7 4.6 97 0.2 WNW 11 13 6 7 991.7 991.7 33.2
30/01:30am 4.8 1.9 4.4 97 0.2 WSW 9 9 5 5 992.0 992.0 33.2
30/01:00am 5.9 3.2 5.5 97 0.2 WNW 9 11 5 6 992.2 992.2 33.2
30/12:30am 5.3 2.8 4.7 96 0.3 WSW 7 9 4 5 991.9 991.9 33.2
30/12:00am 5.7 3.3 5.1 96 0.3 WSW 7 9 4 5 991.9 991.9 33.2
 
Date/Time
EST
Temp
°C
App
Temp
°C
Dew
Point
°C
Rel
Hum
%
Delta-T
°C
Wind Press
QNH
hPa
Press
MSL
hPa
Rain since
9am
mm
Dir  Spd
km/h
Gust
km/h
Spd
kts
Gust
kts
29/11:30pm 6.3 4.0 5.7 96 0.3 WSW 7 7 4 4 992.1 992.1 33.0
29/11:00pm 7.2 5.1 6.6 96 0.3 W 7 9 4 5 992.0 992.0 33.0
29/10:30pm 7.4 5.5 6.7 95 0.3 WSW 6 9 3 5 991.8 991.8 33.0
29/10:29pm 7.5 5.6 6.8 95 0.3 WSW 6 9 3 5 991.8 991.8 33.0
29/10:00pm 8.2 7.6 7.4 95 0.4 CALM 0 0 0 0 991.6 991.6 32.8
29/09:30pm 8.7 6.9 7.9 95 0.4 SSW 7 9 4 5 991.6 991.6 32.8
29/09:00pm 8.8 7.0 8.0 95 0.4 SSE 7 9 4 5 991.7 991.7 32.8
29/08:30pm 9.1 8.7 8.2 94 0.4 CALM 0 6 0 3 991.6 991.6 32.8
29/08:00pm 9.6 8.1 8.5 93 0.5 SW 6 7 3 4 991.2 991.2 32.8
29/07:30pm 9.9 9.3 8.8 93 0.5 NNW 2 7 1 4 991.3 991.3 32.8
29/07:00pm 9.9 8.3 8.8 93 0.5 NNW 7 9 4 5 990.4 990.4 32.8
29/06:30pm 9.9 8.9 8.7 92 0.6 SSW 4 9 2 5 989.8 989.8 32.8
29/06:00pm 10.0 7.3 8.8 92 0.6 S 13 19 7 10 989.1 989.1 32.4
29/05:30pm 10.2 7.5 9.0 92 0.6 WSW 13 19 7 10 989.0 989.0 31.8
29/05:00pm 10.3 6.5 9.1 92 0.6 W 19 24 10 13 988.7 988.7 30.4
29/04:30pm 10.7 6.4 9.5 92 0.6 NW 22 28 12 15 988.5 988.5 29.0
29/04:19pm 11.0 7.2 9.9 93 0.6 NW 20 28 11 15 988.2 988.2 28.8
29/04:16pm 11.1 7.4 10.0 93 0.6 NW 20 28 11 15 988.1 988.1 28.6
29/04:02pm 11.3 9.3 10.0 92 0.7 NW 11 24 6 13 987.9 987.9 28.0
29/04:01pm 11.4 9.8 10.1 92 0.7 NW 9 24 5 13 987.9 987.9 28.0
29/04:00pm 11.4 10.1 10.1 92 0.7 NW 7 24 4 13 987.9 987.9 28.0
29/03:30pm 11.6 10.7 10.5 93 0.6 NW 6 7 3 4 987.8 987.8 27.2
29/03:00pm 11.7 10.6 10.8 94 0.5 NW 7 9 4 5 987.7 987.7 26.4
29/02:52pm 11.3 10.1 10.4 94 0.5 NW 7 11 4 6 987.7 987.7 26.0
29/02:30pm 12.4 10.5 11.8 96 0.3 NNE 13 17 7 9 988.0 988.0 24.2
29/02:24pm 12.5 10.6 11.9 96 0.3 NNE 13 19 7 10 988.0 988.0 24.0
29/02:00pm 12.5 9.5 11.9 96 0.3 NE 19 26 10 14 988.1 988.1 22.6
29/01:56pm 12.5 9.5 11.9 96 0.3 NE 19 26 10 14 988.1 988.1 22.0
29/01:54pm 12.5 9.3 11.9 96 0.3 NE 20 28 11 15 988.1 988.1 22.0
29/01:30pm 12.7 8.8 12.1 96 0.3 NE 24 35 13 19 988.1 988.1 21.4
29/01:00pm 12.6 9.4 12.0 96 0.3 ENE 20 30 11 16 988.5 988.5 20.6
29/12:30pm 12.5 8.9 11.9 96 0.3 E 22 32 12 17 989.3 989.3 18.8
29/12:00pm 12.1 9.0 11.5 96 0.3 E 19 32 10 17 990.0 990.0 16.2
29/11:34am 12.2 8.8 11.4 95 0.4 ENE 20 28 11 15 990.3 990.3 12.6
29/11:31am 12.2 8.5 11.4 95 0.4 ENE 22 28 12 15 990.4 990.4 12.4
29/11:30am 12.3 8.6 11.5 95 0.4 ENE 22 30 12 16 990.4 990.4 12.4
29/11:00am 12.3 7.5 11.5 95 0.4 ENE 28 52 15 28 990.5 990.5 10.2
29/10:40am 12.7 11.6 11.8 94 0.5 ESE 9 15 5 8 990.6 990.6 7.0
29/10:30am 12.7 11.6 11.8 94 0.5 ESE 9 13 5 7 990.7 990.7 5.2
29/10:00am 12.4 9.6 11.5 94 0.5 NE 17 24 9 13 991.9 991.9 4.2
29/09:30am 12.9 9.7 11.8 93 0.6 NE 20 30 11 16 992.3 992.3 2.6
29/09:17am 12.9 9.3 11.8 93 0.6 ENE 22 30 12 16 992.4 992.4 1.4
29/09:00am 12.8 7.9 11.4 91 0.7 NE 28 39 15 21 992.4 992.4 10.0
29/08:53am 12.5 7.5 11.1 91 0.7 ENE 28 39 15 21 992.6 992.6 8.8
29/08:52am 12.5 7.9 11.1 91 0.7 ENE 26 39 14 21 992.6 992.6 8.2
29/08:37am 13.1 9.1 11.7 91 0.7 ENE 24 39 13 21 992.6 992.6 4.4
29/08:30am 13.1 8.7 11.7 91 0.7 ENE 26 50 14 27 992.6 992.6 3.8
29/08:25am 13.2 8.4 11.6 90 0.9 E 28 50 15 27 992.6 992.6 3.2
29/08:22am 13.2 8.8 11.6 90 0.9 E 26 39 14 21 992.5 992.5 3.2
29/08:17am 13.3 8.9 11.7 90 0.9 E 26 39 14 21 992.4 992.4 3.0
29/08:00am 13.3 8.5 11.7 90 0.9 E 28 41 15 22 992.5 992.5 3.0
29/07:30am 13.0 8.9 11.6 91 0.7 E 24 37 13 20 992.7 992.7 3.0
29/07:25am 13.0 8.6 11.6 91 0.7 E 26 46 14 25 992.9 992.9 3.0
29/07:19am 13.0 8.2 11.6 91 0.7 E 28 46 15 25 993.0 993.0 2.6
29/07:00am 12.9 9.2 11.5 91 0.7 E 22 37 12 20 993.7 993.7 2.4
29/06:48am 13.0 8.9 11.4 90 0.8 E 24 37 13 20 994.0 994.0 1.4
29/06:41am 13.0 8.9 11.4 90 0.8 ENE 24 39 13 21 994.2 994.2 1.0
29/06:35am 13.0 8.5 11.4 90 0.8 ENE 26 43 14 23 994.2 994.2 1.0
29/06:30am 13.0 8.4 11.2 89 0.9 E 26 43 14 23 994.3 994.3 0.6
29/06:21am 13.0 8.4 11.2 89 0.9 ENE 26 41 14 22 994.5 994.5 0.4
29/06:15am 13.0 8.4 11.1 88 1.0 E 26 39 14 21 994.5 994.5 0.4
29/06:10am 13.1 8.5 11.2 88 1.0 E 26 41 14 22 994.5 994.5 0.2
29/06:00am 13.2 8.6 10.9 86 1.2 E 26 46 14 25 994.3 994.3 0.2
29/05:45am 13.3 7.9 10.8 85 1.3 E 30 50 16 27 994.0 994.0 0.2
29/05:30am 13.3 7.3 10.7 84 1.4 E 33 54 18 29 993.8 993.8 0.2
29/05:00am 13.2 6.8 10.6 84 1.4 E 35 54 19 29 994.2 994.2 0.2
29/04:59am 13.2 6.8 10.6 84 1.4 E 35 54 19 29 994.2 994.2 0.2
29/04:49am 13.3 7.2 10.5 83 1.5 E 33 48 18 26 994.5 994.5 0.2
29/04:37am 13.1 6.6 10.5 84 1.4 E 35 54 19 29 993.8 993.8 0.2
29/04:30am 13.1 5.5 10.6 85 1.3 E 41 54 22 29 993.8 993.8 0.2
29/04:00am 13.1 7.0 10.6 85 1.3 E 33 54 18 29 995.2 995.2 0.2
29/03:58am 13.0 6.9 10.5 85 1.3 E 33 54 18 29 995.3 995.3 0.2
29/03:33am 12.9 5.2 10.3 84 1.3 ESE 41 61 22 33 995.5 995.5 0.2
29/03:30am 12.9 5.6 10.3 84 1.3 E 39 61 21 33 995.6 995.6 0.2
29/03:14am 12.8 6.8 10.2 84 1.3 E 32 54 17 29 996.3 996.3 0.2
29/03:00am 12.7 5.4 10.1 84 1.3 E 39 57 21 31 996.1 996.1 0.2
29/02:43am 12.6 4.9 10.0 84 1.3 E 41 63 22 34 996.3 996.3 0.2
29/02:31am 12.6 5.9 9.8 83 1.4 E 35 54 19 29 996.6 996.6 0.2
29/02:30am 12.6 5.9 9.8 83 1.4 E 35 52 19 28 996.7 996.7 0.2
29/02:12am 12.5 5.1 9.7 83 1.4 ESE 39 57 21 31 997.6 997.6 0.2
29/02:00am 12.2 5.0 9.2 82 1.5 E 37 59 20 32 997.8 997.8 0.2
29/01:47am 12.2 5.7 9.0 81 1.6 E 33 52 18 28 998.2 998.2 0.2
29/01:30am 12.1 5.2 8.8 80 1.6 ESE 35 52 19 28 998.9 998.9 0.2
29/01:16am 11.8 4.9 8.8 82 1.5 ESE 35 54 19 29 999.0 999.0 0.2
29/01:00am 11.7 4.8 8.7 82 1.5 ESE 35 48 19 26 999.6 999.6 0.2
29/12:57am 11.7 4.8 8.9 83 1.4 ESE 35 48 19 26 999.8 999.8 0.2
29/12:40am 11.7 5.8 9.1 84 1.3 ESE 30 43 16 23 1000.5 1000.5 0.2
29/12:30am 11.6 5.7 9.0 84 1.3 ESE 30 43 16 23 1000.7 1000.7 0.2
29/12:17am 11.5 5.3 9.2 86 1.2 ESE 32 44 17 24 1000.9 1000.9 0.2
29/12:00am 11.6 5.8 9.3 86 1.2 E 30 41 16 22 1001.2 1001.2 0.2
 
Date/Time
EST
Temp
°C
App
Temp
°C
Dew
Point
°C
Rel
Hum
%
Delta-T
°C
Wind Press
QNH
hPa
Press
MSL
hPa
Rain since
9am
mm
Dir  Spd
km/h
Gust
km/h
Spd
kts
Gust
kts
28/11:32pm 11.5 5.3 9.4 87 1.1 ESE 32 41 17 22 1001.8 1001.8 0.2
28/11:30pm 11.5 5.7 9.4 87 1.1 ESE 30 41 16 22 1001.9 1001.9 0.2
28/11:11pm 11.7 6.3 9.6 87 1.1 ESE 28 41 15 22 1002.1 1002.1 0.2
28/11:00pm 11.7 6.3 9.6 87 1.1 ESE 28 39 15 21 1002.2 1002.2 0.2
28/10:30pm 12.3 7.5 8.8 79 1.7 E 24 41 13 22 1002.7 1002.7 0.2

Other Formats:

Comma delimited format used in spreadsheet applications
http://www.bom.gov.au/fwo/IDT60801/IDT60801.95957.axf

JavaScript Object Notation format (JSON) in row-major order
http://www.bom.gov.au/fwo/IDT60801/IDT60801.95957.json